Time;durP1;ratioP1;P1;durP2;ratioP2;P2;SDS_P1;SDS_P2;PMS_P1;PMS_P2;Temp;Humidity;BMP_temperature;BMP_pressure;BME280_temperature;BME280_humidity;BME280_pressure;Samples;Min_cycle;Max_cycle;Signal;HPM_P1;HPM_P2
2023/09/07 00:01:19;;;;;;;6.03;5.53;;;15.30;99.90;;;;;;4990096;28;20471;-65
2023/09/07 00:03:46;;;;;;;4.23;3.93;;;15.30;99.90;;;;;;4990037;28;20466;-65
2023/09/07 00:06:13;;;;;;;5.53;5.23;;;15.30;99.90;;;;;;4989648;28;20498;-65
2023/09/07 00:08:40;;;;;;;9.73;5.40;;;15.20;99.90;;;;;;4990171;28;20457;-65
2023/09/07 00:11:10;;;;;;;6.17;4.60;;;15.20;99.90;;;;;;4990257;28;20460;-65
2023/09/07 00:13:37;;;;;;;4.63;4.33;;;15.20;99.90;;;;;;4989913;28;20504;-65
2023/09/07 00:16:05;;;;;;;5.40;5.00;;;15.20;99.90;;;;;;4989119;28;20465;-65
2023/09/07 00:18:32;;;;;;;5.60;4.97;;;15.20;99.90;;;;;;4990154;28;20455;-65
2023/09/07 00:20:59;;;;;;;5.37;4.97;;;15.10;99.90;;;;;;4990021;28;20464;-65
2023/09/07 00:23:26;;;;;;;5.57;5.07;;;15.10;99.90;;;;;;4989563;28;20568;-65
2023/09/07 00:25:53;;;;;;;5.70;5.30;;;15.10;99.90;;;;;;4989232;28;20579;-66
2023/09/07 00:28:21;;;;;;;6.13;5.67;;;15.10;99.90;;;;;;4989422;28;20887;-65
2023/09/07 00:30:48;;;;;;;6.10;5.50;;;15.10;99.90;;;;;;4989615;28;20458;-65
2023/09/07 00:33:15;;;;;;;6.23;5.50;;;15.00;99.90;;;;;;4988078;28;20469;-65
2023/09/07 00:35:41;;;;;;;6.10;5.50;;;15.00;99.90;;;;;;4989878;28;20450;-65
2023/09/07 00:38:08;;;;;;;5.80;5.30;;;15.00;99.90;;;;;;4989027;28;20902;-65
2023/09/07 00:40:36;;;;;;;5.93;5.33;;;15.00;99.90;;;;;;4989554;28;21029;-65
2023/09/07 00:43:04;;;;;;;5.60;5.13;;;15.00;99.90;;;;;;4989536;28;20483;-65
2023/09/07 00:45:32;;;;;;;6.70;5.90;;;14.90;99.90;;;;;;4989414;28;21227;-65
2023/09/07 00:47:59;;;;;;;6.27;5.63;;;14.90;99.90;;;;;;4988709;28;20535;-65
2023/09/07 00:50:26;;;;;;;5.23;4.73;;;14.90;99.90;;;;;;4989443;28;20465;-65
2023/09/07 00:52:53;;;;;;;5.70;5.17;;;14.90;99.90;;;;;;4989299;28;20457;-65
2023/09/07 00:55:21;;;;;;;6.00;5.50;;;14.90;99.90;;;;;;4989320;28;20449;-65
2023/09/07 00:57:48;;;;;;;6.77;6.10;;;14.90;99.90;;;;;;4989030;28;20456;-65
2023/09/07 01:00:15;;;;;;;5.53;5.07;;;14.80;99.90;;;;;;4989015;28;20478;-65
2023/09/07 01:02:44;;;;;;;5.20;4.80;;;14.80;99.90;;;;;;4989303;28;20457;-65
2023/09/07 01:05:12;;;;;;;6.77;6.23;;;14.80;99.90;;;;;;4989198;28;20855;-65
2023/09/07 01:07:44;;;;;;;6.13;5.50;;;14.80;99.90;;;;;;4988375;28;20456;-65
2023/09/07 01:10:11;;;;;;;5.40;5.00;;;14.80;99.90;;;;;;4989315;28;20551;-65
2023/09/07 01:12:38;;;;;;;6.00;5.50;;;14.80;99.90;;;;;;4988983;28;20547;-65
2023/09/07 01:15:06;;;;;;;7.57;6.70;;;14.70;99.90;;;;;;4988992;28;20571;-65
2023/09/07 01:17:34;;;;;;;8.50;6.37;;;14.70;99.90;;;;;;4988191;28;20540;-65
2023/09/07 01:20:09;;;;;;;6.00;5.17;;;14.70;99.90;;;;;;4988932;28;21052;-65
2023/09/07 01:22:38;;;;;;;5.63;5.13;;;14.70;99.90;;;;;;4989386;28;20463;-65
2023/09/07 01:25:08;;;;;;;6.10;5.60;;;14.70;99.90;;;;;;4988779;28;20945;-65
2023/09/07 01:27:35;;;;;;;6.53;5.93;;;14.70;99.90;;;;;;4988111;28;20464;-65
2023/09/07 01:30:03;;;;;;;6.13;5.63;;;14.60;99.90;;;;;;4988864;28;20539;-65
2023/09/07 01:32:30;;;;;;;7.60;6.93;;;14.60;99.90;;;;;;4987168;28;20452;-65
2023/09/07 01:34:58;;;;;;;6.73;6.27;;;14.60;99.90;;;;;;4988889;28;20469;-65
2023/09/07 01:37:25;;;;;;;6.40;6.00;;;14.60;99.90;;;;;;4988159;28;20575;-65
2023/09/07 01:39:53;;;;;;;6.70;6.20;;;14.60;99.90;;;;;;4988847;28;20458;-65
2023/09/07 01:42:21;;;;;;;5.80;5.40;;;14.60;99.90;;;;;;4988819;28;20453;-65
2023/09/07 01:44:48;;;;;;;6.93;6.43;;;14.60;99.90;;;;;;4988472;28;20539;-65
2023/09/07 01:47:15;;;;;;;6.63;5.87;;;14.50;99.90;;;;;;4988079;28;21060;-65
2023/09/07 01:49:42;;;;;;;6.67;6.07;;;14.50;99.90;;;;;;4988617;28;20895;-65
2023/09/07 01:52:08;;;;;;;5.37;4.90;;;14.50;99.90;;;;;;4988774;28;20456;-65
2023/09/07 01:54:35;;;;;;;6.57;6.07;;;14.40;99.90;;;;;;4988552;28;21017;-65
2023/09/07 01:57:04;;;;;;;5.90;5.30;;;14.40;99.90;;;;;;4987914;28;20463;-65
2023/09/07 01:59:30;;;;;;;6.43;5.70;;;14.40;99.90;;;;;;4988579;28;21151;-65
2023/09/07 02:01:57;;;;;;;7.37;6.33;;;14.40;99.90;;;;;;4988746;28;20459;-65
2023/09/07 02:04:24;;;;;;;5.90;5.50;;;14.40;99.90;;;;;;4988559;28;20476;-65
2023/09/07 02:06:51;;;;;;;6.03;5.43;;;14.40;99.90;;;;;;4987832;28;20491;-65
2023/09/07 02:09:17;;;;;;;6.67;6.07;;;14.40;99.90;;;;;;4988720;28;20467;-65
2023/09/07 02:11:44;;;;;;;8.10;6.60;;;14.40;99.90;;;;;;4990091;28;20830;-65
2023/09/07 02:14:12;;;;;;;7.40;6.70;;;14.30;99.90;;;;;;4992493;28;20487;-65
2023/09/07 02:16:39;;;;;;;7.10;6.50;;;14.30;99.90;;;;;;4991728;28;20835;-65
2023/09/07 02:19:07;;;;;;;6.30;5.90;;;14.20;99.90;;;;;;4992334;28;20449;-65
2023/09/07 02:21:34;;;;;;;6.90;6.20;;;14.20;99.90;;;;;;4992238;28;20460;-64
2023/09/07 02:24:01;;;;;;;7.07;6.40;;;14.30;99.90;;;;;;4991828;28;20480;-65
2023/09/07 02:26:27;;;;;;;6.87;6.17;;;14.20;99.90;;;;;;4990993;28;20492;-65
2023/09/07 02:28:54;;;;;;;6.70;6.20;;;14.20;99.90;;;;;;4992036;28;20443;-65
2023/09/07 02:31:23;;;;;;;6.13;5.60;;;14.20;99.90;;;;;;4991806;28;20455;-65
2023/09/07 02:33:50;;;;;;;6.23;5.73;;;14.20;99.90;;;;;;4990266;28;20561;-65
2023/09/07 02:36:17;;;;;;;6.43;5.93;;;14.20;99.90;;;;;;4991085;28;20443;-65
2023/09/07 02:38:43;;;;;;;6.77;6.20;;;14.10;99.90;;;;;;4991933;28;20536;-65
2023/09/07 02:41:10;;;;;;;6.60;5.90;;;14.10;99.90;;;;;;4991710;28;20456;-65
2023/09/07 02:43:37;;;;;;;5.63;5.23;;;14.10;99.90;;;;;;4991704;28;20482;-65
2023/09/07 02:46:04;;;;;;;6.03;5.63;;;14.10;99.90;;;;;;4990926;28;20486;-65
2023/09/07 02:48:32;;;;;;;6.50;6.03;;;14.00;99.90;;;;;;4991613;28;20466;-65
2023/09/07 02:51:00;;;;;;;6.77;6.27;;;14.00;99.90;;;;;;4991411;28;20538;-65
2023/09/07 02:53:26;;;;;;;6.00;5.60;;;14.00;99.90;;;;;;4991486;28;20486;-65
2023/09/07 02:55:53;;;;;;;6.37;5.77;;;14.00;99.90;;;;;;4990962;28;21013;-64
2023/09/07 02:58:20;;;;;;;5.90;5.40;;;14.00;99.90;;;;;;4991330;28;20461;-65
2023/09/07 03:00:47;;;;;;;6.27;5.73;;;13.90;99.90;;;;;;4991684;28;20464;-65
2023/09/07 03:03:14;;;;;;;7.90;7.17;;;13.90;99.90;;;;;;4991220;28;20469;-65
2023/09/07 03:05:43;;;;;;;7.40;5.73;;;13.90;99.90;;;;;;4991079;28;20490;-65
2023/09/07 03:08:10;;;;;;;7.30;6.70;;;13.80;99.90;;;;;;4987894;28;20464;-65
2023/09/07 03:10:37;;;;;;;6.67;6.17;;;13.80;99.90;;;;;;4990646;28;20913;-65
2023/09/07 03:13:05;;;;;;;7.33;6.77;;;13.80;99.90;;;;;;4990997;28;20974;-65
2023/09/07 03:15:32;;;;;;;6.20;5.60;;;13.80;99.90;;;;;;4991058;28;20510;-64
2023/09/07 03:17:58;;;;;;;6.47;5.97;;;13.80;99.90;;;;;;4990406;28;20875;-65
2023/09/07 03:20:25;;;;;;;6.80;6.30;;;13.80;99.90;;;;;;4991042;28;20462;-65
2023/09/07 03:22:53;;;;;;;6.30;5.77;;;13.70;99.90;;;;;;4990426;28;20447;-65
2023/09/07 03:25:20;;;;;;;7.90;7.17;;;13.70;99.90;;;;;;4991007;28;20453;-65
2023/09/07 03:27:47;;;;;;;6.73;5.70;;;13.70;99.90;;;;;;4990459;28;20537;-65
2023/09/07 03:30:14;;;;;;;5.93;5.53;;;13.70;99.90;;;;;;4990921;28;20960;-65
2023/09/07 03:32:41;;;;;;;9.70;5.80;;;13.70;99.90;;;;;;4989030;28;20844;-65
2023/09/07 03:35:09;;;;;;;6.03;5.63;;;13.60;99.90;;;;;;4990833;28;20503;-65
2023/09/07 03:37:37;;;;;;;7.10;6.53;;;13.60;99.90;;;;;;4989732;28;20518;-65
2023/09/07 03:40:08;;;;;;;6.73;6.13;;;13.60;99.90;;;;;;4990543;28;20455;-65
2023/09/07 03:42:35;;;;;;;6.30;5.73;;;13.50;99.90;;;;;;4990435;28;20461;-65
2023/09/07 03:45:03;;;;;;;7.10;6.40;;;13.50;99.90;;;;;;4990561;28;20486;-65
2023/09/07 03:47:30;;;;;;;6.30;5.90;;;13.50;99.90;;;;;;4989806;28;20579;-65
2023/09/07 03:49:57;;;;;;;6.57;5.97;;;13.50;99.90;;;;;;4990605;28;20538;-65
2023/09/07 03:52:26;;;;;;;6.57;6.07;;;13.50;99.90;;;;;;4990602;28;20451;-65
2023/09/07 03:54:54;;;;;;;6.30;5.80;;;13.50;99.90;;;;;;4990476;28;21000;-65
2023/09/07 03:57:23;;;;;;;6.20;5.80;;;13.50;99.90;;;;;;4989321;28;20458;-65
2023/09/07 03:59:50;;;;;;;7.27;6.60;;;13.40;99.90;;;;;;4990049;28;20545;-65
2023/09/07 04:02:17;;;;;;;6.70;6.20;;;13.40;99.90;;;;;;4990392;28;20549;-65
2023/09/07 04:04:44;;;;;;;6.93;6.40;;;13.40;99.90;;;;;;4990179;28;21004;-65
2023/09/07 04:07:11;;;;;;;8.13;6.20;;;13.40;99.90;;;;;;4989229;28;20498;-65
2023/09/07 04:09:38;;;;;;;6.83;6.20;;;13.40;99.90;;;;;;4989910;28;20462;-65
2023/09/07 04:12:06;;;;;;;7.53;6.83;;;13.30;99.90;;;;;;4989885;28;20452;-65
2023/09/07 04:14:35;;;;;;;6.87;6.30;;;13.30;99.90;;;;;;4990081;28;20478;-65
2023/09/07 04:17:02;;;;;;;7.30;6.60;;;13.30;99.90;;;;;;4989457;28;20832;-65
2023/09/07 04:19:29;;;;;;;7.73;6.33;;;13.30;99.90;;;;;;4989998;28;20827;-65
2023/09/07 04:21:55;;;;;;;7.20;6.60;;;13.30;99.90;;;;;;4989733;28;20542;-65
2023/09/07 04:24:22;;;;;;;6.23;5.83;;;13.30;99.90;;;;;;4989375;28;21027;-65
2023/09/07 04:26:50;;;;;;;7.00;6.43;;;13.20;99.90;;;;;;4989083;28;20498;-65
2023/09/07 04:29:17;;;;;;;6.80;5.87;;;13.20;99.90;;;;;;4989763;28;20866;-65
2023/09/07 04:31:45;;;;;;;8.40;6.57;;;13.20;99.90;;;;;;4989694;28;20831;-65
2023/09/07 04:34:12;;;;;;;7.17;6.47;;;13.20;99.90;;;;;;4987129;28;20569;-65
2023/09/07 04:36:38;;;;;;;7.97;7.40;;;13.20;99.90;;;;;;4988797;28;21068;-65
2023/09/07 04:39:05;;;;;;;6.07;5.60;;;13.20;99.90;;;;;;4989757;28;20458;-65
2023/09/07 04:41:32;;;;;;;6.30;5.80;;;13.10;99.90;;;;;;4989825;28;20892;-65
2023/09/07 04:43:59;;;;;;;7.70;6.90;;;13.10;99.90;;;;;;4989696;28;20480;-65
2023/09/07 04:46:26;;;;;;;6.90;6.20;;;13.10;99.90;;;;;;4988752;28;20570;-65
2023/09/07 04:48:54;;;;;;;6.87;6.17;;;13.10;99.90;;;;;;4989464;28;20451;-65
2023/09/07 04:51:22;;;;;;;6.33;5.83;;;13.00;99.90;;;;;;4989388;28;20565;-65
2023/09/07 04:53:49;;;;;;;7.60;7.00;;;13.00;99.90;;;;;;4989211;28;21043;-65
2023/09/07 04:56:17;;;;;;;7.67;6.97;;;13.00;99.90;;;;;;4988453;28;20443;-65
2023/09/07 04:58:44;;;;;;;8.47;7.77;;;13.00;99.90;;;;;;4989257;28;20989;-65
2023/09/07 05:01:13;;;;;;;7.40;6.80;;;13.00;99.90;;;;;;4989167;28;20554;-65
2023/09/07 05:03:40;;;;;;;8.07;7.37;;;13.00;99.90;;;;;;4988904;28;20478;-65
2023/09/07 05:06:09;;;;;;;8.43;7.70;;;13.00;99.90;;;;;;4988346;28;20518;-65
2023/09/07 05:08:36;;;;;;;7.53;6.90;;;13.00;99.90;;;;;;4988885;28;20537;-64
2023/09/07 05:11:04;;;;;;;7.17;6.57;;;13.00;99.90;;;;;;4989186;28;20537;-65
2023/09/07 05:13:31;;;;;;;7.43;6.70;;;13.00;99.90;;;;;;4989207;28;20502;-65
2023/09/07 05:16:00;;;;;;;6.23;5.60;;;13.00;99.90;;;;;;4988328;28;20541;-65
2023/09/07 05:18:26;;;;;;;6.63;6.03;;;13.00;99.90;;;;;;4988359;28;20477;-65
2023/09/07 05:20:53;;;;;;;7.10;6.60;;;13.00;99.90;;;;;;4988838;28;21038;-65
2023/09/07 05:23:22;;;;;;;7.93;7.20;;;13.00;99.90;;;;;;4988461;28;20482;-65
2023/09/07 05:25:52;;;;;;;7.13;6.43;;;12.90;99.90;;;;;;4987872;28;20555;-65
2023/09/07 05:28:20;;;;;;;7.37;6.70;;;12.90;99.90;;;;;;4988562;28;20454;-65
2023/09/07 05:30:47;;;;;;;7.80;7.07;;;13.00;99.90;;;;;;4988725;28;20533;-65
2023/09/07 05:33:15;;;;;;;7.40;6.80;;;13.00;99.90;;;;;;4987283;28;20554;-65
2023/09/07 05:35:42;;;;;;;7.63;6.90;;;13.00;99.90;;;;;;4988935;28;20513;-65
2023/09/07 05:38:10;;;;;;;7.10;6.60;;;13.00;99.90;;;;;;4987704;28;20447;-65
2023/09/07 05:40:39;;;;;;;8.03;7.43;;;13.00;99.90;;;;;;4988927;28;20469;-65
2023/09/07 05:43:06;;;;;;;7.13;6.43;;;13.00;99.90;;;;;;4988875;28;21219;-65
2023/09/07 05:45:36;;;;;;;6.13;5.60;;;13.00;99.90;;;;;;4989735;28;20543;-65
2023/09/07 05:48:03;;;;;;;7.70;7.10;;;13.00;99.90;;;;;;4991535;28;20695;-65
2023/09/07 05:50:30;;;;;;;7.70;7.10;;;13.00;99.90;;;;;;4992825;28;20565;-65
2023/09/07 05:52:57;;;;;;;7.47;6.87;;;13.10;99.90;;;;;;4992297;28;21081;-65
2023/09/07 05:55:23;;;;;;;7.03;6.43;;;13.00;99.90;;;;;;4991742;28;20442;-65
2023/09/07 05:57:52;;;;;;;6.60;6.10;;;13.10;99.90;;;;;;4989880;28;20454;-65
2023/09/07 06:00:19;;;;;;;7.27;6.57;;;13.10;99.90;;;;;;4992169;28;20448;-65
2023/09/07 06:02:46;;;;;;;7.87;7.13;;;13.10;99.90;;;;;;4992171;28;20545;-65
2023/09/07 06:05:14;;;;;;;6.27;5.87;;;13.20;99.90;;;;;;4992368;28;20457;-65
2023/09/07 06:07:40;;;;;;;10.73;7.10;;;13.20;99.90;;;;;;4991317;28;20486;-65
2023/09/07 06:10:08;;;;;;;6.77;6.20;;;13.20;99.90;;;;;;4992306;28;20892;-65
2023/09/07 06:12:35;;;;;;;6.80;6.20;;;13.30;99.90;;;;;;4992101;28;20461;-65
2023/09/07 06:15:04;;;;;;;6.90;6.27;;;13.30;99.90;;;;;;4992057;28;20481;-65
2023/09/07 06:17:31;;;;;;;8.07;7.37;;;13.30;99.90;;;;;;4990536;28;21232;-65
2023/09/07 06:19:58;;;;;;;7.10;6.50;;;13.30;99.90;;;;;;4992057;28;20457;-65
2023/09/07 06:22:24;;;;;;;6.93;5.80;;;13.40;99.90;;;;;;4989242;28;20454;-65
2023/09/07 06:24:51;;;;;;;7.27;6.67;;;13.40;99.90;;;;;;4990999;28;20494;-65
2023/09/07 06:27:18;;;;;;;7.47;6.87;;;13.40;99.90;;;;;;4990738;28;20630;-65
2023/09/07 06:29:45;;;;;;;8.23;7.10;;;13.50;99.90;;;;;;4991331;28;21014;-65
2023/09/07 06:32:13;;;;;;;8.27;7.47;;;13.50;99.90;;;;;;4991337;28;20458;-65
2023/09/07 06:34:40;;;;;;;8.70;6.83;;;13.50;99.90;;;;;;4991109;28;20467;-65
2023/09/07 06:37:07;;;;;;;7.90;6.50;;;13.60;99.90;;;;;;4990725;28;20451;-65
2023/09/07 06:39:34;;;;;;;8.53;7.80;;;13.70;99.90;;;;;;4991260;28;20550;-65
2023/09/07 06:42:01;;;;;;;7.50;6.80;;;13.80;99.90;;;;;;4991310;28;20463;-65
2023/09/07 06:44:28;;;;;;;7.80;6.93;;;14.00;99.90;;;;;;4990809;28;20895;-65
2023/09/07 06:46:55;;;;;;;8.50;7.80;;;14.20;99.90;;;;;;4990170;28;20579;-66
2023/09/07 06:49:24;;;;;;;8.03;6.70;;;14.40;99.90;;;;;;4990663;28;20484;-65
2023/09/07 06:51:50;;;;;;;7.47;6.90;;;14.70;99.90;;;;;;4991209;28;20458;-65
2023/09/07 06:54:17;;;;;;;7.90;7.30;;;14.90;99.90;;;;;;4990667;28;21019;-66
2023/09/07 06:56:44;;;;;;;7.10;6.40;;;15.10;99.90;;;;;;4989583;28;20456;-65
2023/09/07 06:59:11;;;;;;;8.03;7.33;;;15.40;99.90;;;;;;4989139;28;20582;-65
2023/09/07 07:01:38;;;;;;;7.33;6.77;;;15.60;99.90;;;;;;4990227;28;20448;-66
2023/09/07 07:04:05;;;;;;;6.47;5.93;;;15.80;99.90;;;;;;4990516;28;20473;-65
2023/09/07 07:06:33;;;;;;;7.10;6.50;;;16.00;99.90;;;;;;4989783;28;20449;-65
2023/09/07 07:09:00;;;;;;;7.67;6.97;;;16.20;99.90;;;;;;4990435;28;20457;-65
2023/09/07 07:11:26;;;;;;;7.20;6.60;;;16.40;99.90;;;;;;4990321;28;20457;-66
2023/09/07 07:13:53;;;;;;;7.03;6.53;;;16.60;99.90;;;;;;4989914;28;20542;-66
2023/09/07 07:16:20;;;;;;;7.43;6.53;;;16.70;99.90;;;;;;4989520;28;20459;-66
2023/09/07 07:18:47;;;;;;;7.93;7.13;;;16.90;99.90;;;;;;4990226;28;20955;-66
2023/09/07 07:21:14;;;;;;;8.20;7.47;;;17.00;99.90;;;;;;4990370;28;20450;-65
2023/09/07 07:23:42;;;;;;;6.87;6.27;;;17.20;99.90;;;;;;4989690;28;21061;-65
2023/09/07 07:26:09;;;;;;;7.87;7.27;;;17.30;99.90;;;;;;4989701;28;20446;-66
2023/09/07 07:28:36;;;;;;;7.50;6.90;;;17.50;99.90;;;;;;4989995;28;20482;-66
2023/09/07 07:31:08;;;;;;;7.27;6.57;;;17.60;99.90;;;;;;4990409;28;20498;-65
2023/09/07 07:33:35;;;;;;;8.07;7.40;;;17.80;99.90;;;;;;4988810;28;20470;-65
2023/09/07 07:36:02;;;;;;;7.93;7.23;;;17.90;99.90;;;;;;4989190;28;20449;-66
2023/09/07 07:38:29;;;;;;;7.40;6.90;;;18.00;99.90;;;;;;4989735;28;20534;-65
2023/09/07 07:40:57;;;;;;;7.20;6.60;;;18.20;99.90;;;;;;4990124;28;20545;-66
2023/09/07 07:43:24;;;;;;;8.00;7.20;;;18.30;99.90;;;;;;4989533;28;20467;-65
2023/09/07 07:45:53;;;;;;;9.10;7.50;;;18.40;99.90;;;;;;4989330;28;20447;-65
2023/09/07 07:48:20;;;;;;;8.20;7.53;;;18.50;99.90;;;;;;4989393;28;20496;-65
2023/09/07 07:50:47;;;;;;;7.80;7.20;;;18.70;99.90;;;;;;4989828;28;20455;-65
2023/09/07 07:53:14;;;;;;;8.63;7.97;;;18.70;99.90;;;;;;4989342;28;20893;-65
2023/09/07 07:55:41;;;;;;;7.80;7.17;;;18.80;99.90;;;;;;4989493;28;20458;-66
2023/09/07 07:58:10;;;;;;;8.07;7.47;;;18.90;99.90;;;;;;4989179;28;20950;-66
2023/09/07 08:00:37;;;;;;;7.67;6.97;;;19.10;99.90;;;;;;4989766;28;20538;-66
2023/09/07 08:03:05;;;;;;;7.30;6.80;;;19.20;99.90;;;;;;4989365;28;20472;-66
2023/09/07 08:05:33;;;;;;;7.60;6.87;;;19.30;99.90;;;;;;4989165;28;20455;-66
2023/09/07 08:08:00;;;;;;;7.80;7.10;;;19.50;99.90;;;;;;4988868;28;20574;-66
2023/09/07 08:10:27;;;;;;;7.83;6.70;;;19.50;99.90;;;;;;4989555;28;20447;-66
2023/09/07 08:12:55;;;;;;;9.20;6.90;;;19.70;99.90;;;;;;4989331;28;20454;-66
2023/09/07 08:15:24;;;;;;;8.07;7.57;;;19.70;99.90;;;;;;4989155;28;20549;-66
2023/09/07 08:17:52;;;;;;;7.93;7.30;;;19.90;99.90;;;;;;4972825;28;20448;-66
2023/09/07 08:20:19;;;;;;;8.00;7.20;;;20.10;99.90;;;;;;4988879;28;20466;-66
2023/09/07 08:22:45;;;;;;;7.37;6.70;;;20.30;99.90;;;;;;4989075;28;20475;-66
2023/09/07 08:25:13;;;;;;;7.03;6.53;;;20.40;99.90;;;;;;4989260;28;20453;-66
2023/09/07 08:27:44;;;;;;;7.40;6.73;;;20.50;99.90;;;;;;4988297;28;20484;-66
2023/09/07 08:30:12;;;;;;;8.97;7.97;;;20.70;99.90;;;;;;4989165;28;20461;-66
2023/09/07 08:32:40;;;;;;;8.80;8.00;;;20.80;99.90;;;;;;4987897;28;20455;-66
2023/09/07 08:35:09;;;;;;;8.40;7.60;;;20.90;99.90;;;;;;4988507;28;20481;-66
2023/09/07 08:37:36;;;;;;;7.13;6.53;;;21.10;99.90;;;;;;4988048;28;20532;-66
2023/09/07 08:40:04;;;;;;;8.03;7.33;;;21.20;99.90;;;;;;4988966;28;20449;-66
2023/09/07 08:42:31;;;;;;;6.93;6.53;;;21.30;99.90;;;;;;4988664;28;20483;-66
2023/09/07 08:45:06;;;;;;;6.30;5.80;;;21.40;99.90;;;;;;4988489;28;20837;-66
2023/09/07 08:47:34;;;;;;;6.53;6.13;;;21.50;99.90;;;;;;4987899;28;20539;-66
2023/09/07 08:50:03;;;;;;;6.37;5.77;;;21.60;99.90;;;;;;4988711;28;20549;-66
2023/09/07 08:52:30;;;;;;;6.40;5.80;;;21.70;99.90;;;;;;4988577;28;20872;-66
2023/09/07 08:55:00;;;;;;;7.37;6.43;;;21.80;99.90;;;;;;4988675;28;20474;-66
2023/09/07 08:57:28;;;;;;;5.83;5.43;;;21.90;99.90;;;;;;4987620;28;20838;-66
2023/09/07 08:59:55;;;;;;;7.17;6.50;;;22.10;99.90;;;;;;4988917;28;20453;-66
2023/09/07 09:02:21;;;;;;;6.00;5.60;;;22.20;99.90;;;;;;4988671;28;20479;-66
2023/09/07 09:04:48;;;;;;;6.93;6.43;;;22.30;99.90;;;;;;4988250;28;20494;-66
2023/09/07 09:07:16;;;;;;;6.70;5.77;;;22.40;99.90;;;;;;4987602;28;20491;-66
2023/09/07 09:09:44;;;;;;;6.73;6.33;;;22.50;99.90;;;;;;4988127;28;20530;-66
2023/09/07 09:12:12;;;;;;;6.40;5.80;;;22.60;99.90;;;;;;4988371;28;20513;-66
2023/09/07 09:14:39;;;;;;;7.10;6.50;;;22.70;99.90;;;;;;4988275;28;20476;-66
2023/09/07 09:17:06;;;;;;;7.10;6.70;;;22.80;99.90;;;;;;4987516;28;20443;-66
2023/09/07 09:19:34;;;;;;;6.57;6.07;;;22.90;99.90;;;;;;4988090;28;20450;-66
2023/09/07 09:22:01;;;;;;;6.60;6.10;;;23.00;99.90;;;;;;4988412;28;20553;-66
2023/09/07 09:24:33;;;;;;;6.23;5.83;;;23.10;99.90;;;;;;4987918;28;20582;-66
2023/09/07 09:27:00;;;;;;;6.00;5.40;;;23.20;99.90;;;;;;4987975;28;21099;-66
2023/09/07 09:29:27;;;;;;;5.93;5.53;;;23.20;99.90;;;;;;4988300;28;20486;-66
2023/09/07 09:31:54;;;;;;;6.67;5.90;;;23.40;99.90;;;;;;4988162;28;20451;-66
2023/09/07 09:34:22;;;;;;;6.13;5.73;;;23.40;99.90;;;;;;4986767;28;20864;-66
2023/09/07 09:36:49;;;;;;;6.80;6.30;;;23.50;99.90;;;;;;4987139;28;20961;-67
2023/09/07 09:39:24;;;;;;;6.40;6.00;;;23.60;99.90;;;;;;4988132;28;20964;-66
2023/09/07 09:41:55;;;;;;;5.43;5.00;;;23.60;99.90;;;;;;4972499;28;20788;-66
2023/09/07 09:44:25;;;;;;;6.60;6.00;;;23.70;99.90;;;;;;4987828;28;20591;-66
2023/09/07 09:46:53;;;;;;;6.50;5.80;;;23.80;99.90;;;;;;4987003;28;20455;-66
2023/09/07 09:49:22;;;;;;;5.80;5.10;;;23.80;99.90;;;;;;4987755;28;20491;-66
2023/09/07 09:51:50;;;;;;;6.30;5.70;;;23.90;99.90;;;;;;4972190;28;20458;-66
2023/09/07 09:54:18;;;;;;;5.73;5.33;;;23.90;99.90;;;;;;4987773;28;20467;-66
2023/09/07 09:56:45;;;;;;;7.40;5.80;;;24.00;99.90;;;;;;4987078;28;20451;-66
2023/09/07 09:59:14;;;;;;;6.27;5.80;;;24.10;99.90;;;;;;4987936;28;20451;-66
2023/09/07 10:01:45;;;;;;;6.83;6.33;;;24.10;99.90;;;;;;4987639;28;20451;-64
2023/09/07 10:04:14;;;;;;;6.07;5.40;;;24.20;99.90;;;;;;4987719;28;20504;-64
2023/09/07 10:06:51;;;;;;;5.80;5.30;;;24.30;99.80;;;;;;4987048;28;20462;-64
2023/09/07 10:09:19;;;;;;;7.20;6.60;;;24.30;99.90;;;;;;4987784;28;20483;-64
2023/09/07 10:11:54;;;;;;;6.20;5.60;;;24.40;99.80;;;;;;4987633;28;21134;-64
2023/09/07 10:14:22;;;;;;;6.10;5.50;;;24.50;99.90;;;;;;4987762;28;20858;-66
2023/09/07 10:16:51;;;;;;;6.03;5.53;;;24.50;97.30;;;;;;4987053;28;20917;-66
2023/09/07 10:19:19;;;;;;;6.20;5.70;;;24.60;98.00;;;;;;4987954;28;20476;-66
2023/09/07 10:21:46;;;;;;;6.03;5.63;;;24.70;97.90;;;;;;4988036;28;20448;-66
2023/09/07 10:24:24;;;;;;;6.37;5.83;;;24.80;97.90;;;;;;4987446;28;20538;-66
2023/09/07 10:26:57;;;;;;;6.27;5.83;;;24.90;97.70;;;;;;4987204;28;20868;-64
2023/09/07 10:29:26;;;;;;;5.67;5.37;;;25.00;98.20;;;;;;4987920;28;20517;-64
2023/09/07 10:31:53;;;;;;;5.40;5.00;;;25.00;97.30;;;;;;4987869;28;20537;-64
2023/09/07 10:34:22;;;;;;;6.07;5.57;;;25.10;97.30;;;;;;4989979;28;21223;-64
2023/09/07 10:36:52;;;;;;;6.10;5.70;;;25.10;97.00;;;;;;4990167;28;21200;-64
2023/09/07 10:39:19;;;;;;;7.40;6.20;;;25.30;97.80;;;;;;4991299;28;20455;-64
2023/09/07 10:41:47;;;;;;;5.97;5.57;;;25.40;97.50;;;;;;4991066;28;20459;-65
2023/09/07 10:44:14;;;;;;;5.30;5.00;;;25.40;97.00;;;;;;4990841;28;20534;-64
2023/09/07 10:46:42;;;;;;;5.80;5.40;;;25.40;96.50;;;;;;4990259;28;20453;-63
2023/09/07 10:49:12;;;;;;;5.73;5.37;;;25.50;96.40;;;;;;4990901;28;20497;-64
2023/09/07 10:51:44;;;;;;;5.53;5.23;;;25.60;96.40;;;;;;4991154;28;20445;-64
2023/09/07 10:54:18;;;;;;;5.27;4.90;;;25.60;96.20;;;;;;4990810;28;20466;-64
2023/09/07 10:56:46;;;;;;;5.83;5.43;;;25.70;95.70;;;;;;4990224;28;20447;-64
2023/09/07 10:59:14;;;;;;;5.80;5.40;;;25.70;95.80;;;;;;4990649;28;20533;-64
2023/09/07 11:01:42;;;;;;;6.43;5.93;;;25.80;95.80;;;;;;4990593;28;20468;-64
2023/09/07 11:04:11;;;;;;;5.87;5.30;;;25.90;95.70;;;;;;4990723;28;20577;-64
2023/09/07 11:06:38;;;;;;;5.40;5.10;;;25.90;94.50;;;;;;4989866;28;20459;-64
2023/09/07 11:09:08;;;;;;;5.70;5.20;;;26.00;94.80;;;;;;4990103;28;20492;-64
2023/09/07 11:11:36;;;;;;;5.87;5.43;;;26.10;94.70;;;;;;4990119;28;20461;-64
2023/09/07 11:14:04;;;;;;;5.80;5.40;;;26.10;94.30;;;;;;4989841;28;20473;-64
2023/09/07 11:16:33;;;;;;;6.20;5.60;;;26.10;94.00;;;;;;4989607;28;20456;-64
2023/09/07 11:19:05;;;;;;;5.97;5.47;;;26.20;93.90;;;;;;4990198;28;20454;-65
2023/09/07 11:21:34;;;;;;;6.83;6.43;;;26.20;94.00;;;;;;4990078;28;20839;-64
2023/09/07 11:24:04;;;;;;;5.67;5.20;;;26.30;93.80;;;;;;4989804;28;20486;-64
2023/09/07 11:26:41;;;;;;;5.93;5.60;;;26.40;93.30;;;;;;4988971;28;20541;-64
2023/09/07 11:29:07;;;;;;;7.27;5.63;;;26.50;93.50;;;;;;4989818;28;20486;-64
2023/09/07 11:31:34;;;;;;;5.33;4.93;;;26.60;93.30;;;;;;4989854;28;20451;-64
2023/09/07 11:34:01;;;;;;;5.10;4.80;;;26.70;93.20;;;;;;4988672;28;20471;-64
2023/09/07 11:36:29;;;;;;;5.10;4.70;;;26.80;93.60;;;;;;4988826;28;20455;-65
2023/09/07 11:38:56;;;;;;;5.77;5.37;;;26.90;92.10;;;;;;4990021;28;20464;-64
2023/09/07 11:41:23;;;;;;;6.53;5.97;;;27.00;92.70;;;;;;4989783;28;20941;-64
2023/09/07 11:43:50;;;;;;;5.70;5.30;;;27.00;92.60;;;;;;4973365;28;20468;-64
2023/09/07 11:46:16;;;;;;;5.33;4.60;;;27.10;91.70;;;;;;4989068;28;20457;-65
2023/09/07 11:48:43;;;;;;;5.20;4.80;;;27.20;91.60;;;;;;4989114;28;20485;-64
2023/09/07 11:51:10;;;;;;;4.90;4.53;;;27.20;90.30;;;;;;4989779;28;20522;-64
2023/09/07 11:53:38;;;;;;;8.23;5.43;;;27.30;90.20;;;;;;4989164;28;20477;-64
2023/09/07 11:56:05;;;;;;;5.07;4.77;;;27.40;89.70;;;;;;4989095;28;20656;-65
2023/09/07 11:58:32;;;;;;;5.60;5.20;;;27.40;88.50;;;;;;4989442;28;20448;-64
2023/09/07 12:00:59;;;;;;;6.13;5.73;;;27.60;88.80;;;;;;4989287;28;20453;-64
2023/09/07 12:03:25;;;;;;;5.30;4.90;;;27.60;89.00;;;;;;4988933;28;20473;-65
2023/09/07 12:05:53;;;;;;;5.20;4.80;;;27.80;89.20;;;;;;4988607;28;20533;-65
2023/09/07 12:08:19;;;;;;;5.07;4.77;;;27.90;85.00;;;;;;4988672;28;20549;-64
2023/09/07 12:10:48;;;;;;;5.10;4.70;;;28.10;89.70;;;;;;4989208;28;20454;-64
2023/09/07 12:13:14;;;;;;;5.60;5.20;;;28.10;86.40;;;;;;4989041;28;20589;-64
2023/09/07 12:15:41;;;;;;;7.77;5.83;;;28.20;85.10;;;;;;4988839;28;20962;-64
2023/09/07 12:18:08;;;;;;;6.17;5.50;;;28.40;85.10;;;;;;4988328;28;20524;-64
2023/09/07 12:20:35;;;;;;;5.10;4.73;;;28.50;85.30;;;;;;4989161;28;20454;-64
2023/09/07 12:23:03;;;;;;;5.20;4.20;;;28.60;83.60;;;;;;4988758;28;20451;-64
2023/09/07 12:25:30;;;;;;;4.60;4.30;;;28.80;85.30;;;;;;4988952;28;20464;-64
2023/09/07 12:27:58;;;;;;;5.37;4.97;;;29.00;81.70;;;;;;4988124;28;20443;-64
2023/09/07 12:30:25;;;;;;;4.80;4.50;;;29.20;82.60;;;;;;5022472;23;21037;-64
2023/09/07 12:32:52;;;;;;;4.93;4.63;;;29.40;81.80;;;;;;5007398;28;20448;-66
2023/09/07 12:35:20;;;;;;;6.10;5.70;;;29.60;81.60;;;;;;5008590;28;20454;-66
2023/09/07 12:37:47;;;;;;;4.27;3.97;;;29.70;79.30;;;;;;5007799;28;20443;-66
2023/09/07 12:40:14;;;;;;;5.83;5.43;;;29.80;78.50;;;;;;5015154;28;20541;-66
2023/09/07 12:42:41;;;;;;;5.00;4.57;;;30.00;80.80;;;;;;5017414;28;20450;-66
2023/09/07 12:45:11;;;;;;;5.60;5.10;;;30.00;79.50;;;;;;5022507;28;20539;-66
2023/09/07 12:47:38;;;;;;;4.93;4.27;;;30.20;78.10;;;;;;5011868;28;20446;-66
2023/09/07 12:50:06;;;;;;;5.57;5.07;;;30.30;77.80;;;;;;5022565;28;20495;-66